x

Frying Pan Shoals, Nc Buoy (41013) Weather Station

9:20 - Wed 31st Aug 2016 All times are EDT. -4 hours from GMT.

  • Wind
    13mph, 18mph gusts
  • Sea Temp 84°f
  • Luft Temp 79°f
  • Sea Pressure 1012.6mb
  • Frying Pan Shoals, Nc Buoy
  • Frying Pan Shoals, Nc Buoy

More Historic Weather Station data

Upgrade to MSW Pro to gain access to the past 30 days of data for over 8000 Wavebouys and Weather Stations around the globe.

Join Pro

Comparision Forecast

View Surf forecast
   
Mi 08/31 9:20  -   -   -  13 18 mph 1012.6mb 84f 79f
9:10  -   -   -  13 16 mph 1012.8mb 84f 78f
9:00  -   -   -  11 16 mph 1012.6mb 84f 78f
8:50 3ft 7s 5s 11 13 mph 1012.8mb 84f 78f
8:40  -   -   -  11 13 mph 1012.8mb 84f 78f
8:30  -   -   -  11 13 mph 1012.8mb 84f 77f
8:20  -   -   -  11 13 mph 1013mb 84f 77f
8:10  -   -   -  11 16 mph 1013mb 84f 77f
8:00  -   -   -  11 13 mph 1013mb 84f 76f
7:50 3.5ft 7s 5s 13 16 mph 1013mb 84f 76f
7:40  -   -   -  13 18 mph 1013mb 84f 76f
7:10  -   -   -  16 18 mph 1013.4mb 84f 76f
7:00  -   -   -  16 20 mph 1013.5mb 84f 76f
6:50 3.5ft 6s 5s 20 25 mph 1013.6mb 84f 76f
6:40  -   -   -  20 25 mph 1013.5mb 84f 77f
6:30  -   -   -  20 25 mph 1013mb 84f 78f
6:20  -   -   -  20 25 mph 1013.3mb 84f 79f
6:10  -   -   -  16 22 mph 1013.1mb 84f 79f
6:00  -   -   -  11 16 mph 1013.1mb 84f 80f
5:50 3ft 6s 5s 9 11 mph 1013.3mb 84f 81f
5:40  -   -   -  7 9 mph 1013.3mb 84f 81f
5:30  -   -   -  4 7 mph 1013.3mb - -
5:20  -   -   -  2 4 mph 1013.4mb 84f 81f
5:10  -   -   -  2 4 mph 1013.5mb 84f 81f
5:00  -   -   -  4 7 mph 1013.5mb 84f 81f
4:50 3ft 6s 5s 4 7 mph 1013.5mb 84f 80f
4:40 3ft  -  5s 4 7 mph 1013.6mb 84f 80f
4:30  -   -   -  4 7 mph 1013.8mb 84f 80f
4:20  -   -   -  4 7 mph 1013.8mb 84f 80f
4:10  -   -   -  7 9 mph 1013.8mb 84f 80f
4:00  -   -   -  7 9 mph 1014mb 84f 80f
3:50 2.5ft 7s 5s 7 11 mph 1013.8mb 84f 80f
3:40  -   -   -  9 11 mph 1013.9mb 84f 80f
3:30  -   -   -  7 9 mph 1014mb 84f 80f
3:20  -   -   -  9 11 mph 1013.9mb 84f 80f
3:10  -   -   -  9 11 mph 1014mb 84f 80f
3:00  -   -   -  9 11 mph 1014mb 84f 81f
2:50 2.5ft 11s 5s 9 11 mph 1014mb 84f 81f
2:40 2.5ft  -  5s 9 11 mph 1014.3mb 84f 81f
2:30  -   -   -  9 11 mph 1014.4mb 84f 80f
2:20  -   -   -  9 11 mph 1014.3mb 84f 81f
2:10  -   -   -  11 13 mph 1014.5mb 84f 80f
2:00  -   -   -  9 13 mph 1014.5mb 84f 81f
1:50 2.5ft 11s 6s 7 11 mph 1014.6mb 84f 81f
1:40 2.5ft  -  6s 7 9 mph 1014.8mb 84f 81f
1:30  -   -   -  7 9 mph 1014.9mb 84f 81f
1:20  -   -   -  7 9 mph 1015mb 84f 81f
1:10  -   -   -  7 11 mph 1015mb 84f 81f
1:00  -   -   -  9 11 mph 1015.1mb 84f 81f
12:50 2.5ft 11s 6s 7 9 mph 1015.1mb 84f 81f
12:40  -   -   -  4 7 mph 1015.1mb 84f 81f
12:30  -   -   -  4 7 mph 1015.3mb 84f 80f
12:20  -   -   -  4
mph
1015.4mb 84f 81f
12:10  -   -   -  2 4 mph 1015.5mb 84f 81f
12:00  -   -   -  2 4 mph 1015.5mb 84f 81f
11:50 3ft 11s 6s  -  2 mph 1015.5mb 84f 80f
11:40  -   -   -   -  2 mph 1015.5mb 84f 80f
11:30  -   -   -  2 4 mph 1015.5mb 84f 80f
11:20  -   -   -  2
mph
1015.5mb 84f 80f
11:10  -   -   -  2 4 mph 1015.5mb 84f 80f
11:00  -   -   -  2 4 mph 1015.5mb 84f 80f
10:50 3ft 11s 6s 4 7 mph 1015.5mb 84f 80f
10:40 3ft  -  6s 4 7 mph 1015.5mb 84f 79f
10:30  -   -   -  4 7 mph 1015.5mb 84f 79f
10:20  -   -   -  7 9 mph 1015.6mb 84f 79f
10:10  -   -   -  9 11 mph 1015.6mb 84f 79f
10:00  -   -   -  11 16 mph 1015.5mb 84f 80f
9:50 3.5ft 11s 6s 4 11 mph 1015.5mb 84f 81f
9:40  -   -   -  2 4 mph 1015.4mb 84f 81f
9:30  -   -   -  4 7 mph 1015.5mb 84f 82f
9:20  -   -   -  4 7 mph 1015.5mb 84f 82f
9:10  -   -   -  4 7 mph 1015.3mb 84f 82f
9:00  -   -   -  4 7 mph 1015.3mb 84f 82f
8:50 3ft 11s 6s 4 7 mph 1015.5mb 84f 82f
8:40  -   -   -  4 7 mph 1015.5mb 84f 82f
8:30  -   -   -  2 4 mph 1015.5mb 84f 82f
8:20  -   -   -  4 7 mph 1015.3mb 84f 82f
8:10  -   -   -  4 7 mph 1015.3mb 84f 82f
8:00  -   -   -  2 4 mph 1015.1mb 84f 82f
7:50 3.5ft 11s 7s 2
mph
1015.1mb 84f 82f
7:40 3.5ft  -  7s  -  2 mph 1015.1mb 84f 82f
7:30  -   -   -  2 4 mph 1015.1mb 84f 82f
7:20  -   -   -  2
mph
1015.1mb 84f 82f
7:10  -   -   -  2 4 mph 1015mb 84f 82f
7:00  -   -   -   -  2 mph 1015mb 84f 82f
6:50 3.5ft 11s 6s  -  2 mph 1015mb 84f 82f
6:40  -   -   -  2
mph
1014.8mb 84f 82f
6:30  -   -   -  2 4 mph 1014.6mb 84f 82f
6:20  -   -   -  2 4 mph 1014.6mb 84f 82f
6:10  -   -   -  2 4 mph 1014.6mb 84f 82f
6:00  -   -   -  2 4 mph 1014.6mb 84f 82f
5:50 3ft 11s 6s 2 4 mph 1014.6mb 84f 82f
5:40  -   -   -  4 7 mph 1014.6mb 84f 82f
5:30  -   -   -  4 7 mph 1014.6mb 84f 82f
5:20  -   -   -  4 7 mph 1014.6mb 84f 82f
5:10  -   -   -  2 4 mph 1014.8mb 84f 81f
5:00  -   -   -  4 7 mph 1014.6mb 84f 81f
4:50 3.5ft 10s 6s 4 7 mph 1014.6mb 84f 81f
4:40 3.5ft  -  6s 7
mph
1014.8mb 84f 81f
4:30  -   -   -  4 7 mph 1014.8mb 84f 81f
4:20  -   -   -  2 7 mph 1014.8mb 84f 82f
4:10  -   -   -  2 4 mph 1014.9mb 84f 81f
4:00  -   -   -  4 7 mph 1015mb 84f 81f
3:50 3.5ft 11s 6s 4 7 mph 1015mb 84f 81f
3:40  -   -   -  4 7 mph 1015.1mb 84f 82f
3:30  -   -   -  2 7 mph 1015.4mb 84f 82f
3:20  -   -   -  2 7 mph 1015.5mb 84f 82f
3:10  -   -   -  4 7 mph 1015.5mb 84f 82f
3:00  -   -   -  4 7 mph 1015.6mb 84f 82f
2:50 3.5ft 11s 6s 2 4 mph 1015.6mb 84f 82f
2:40  -   -   -   -  4 mph 1015.8mb 84f 82f
2:30  -   -   -  2 4 mph 1015.6mb 84f 82f
2:20  -   -   -  2 4 mph 1015.6mb 84f 82f
2:10  -   -   -  2 4 mph 1015.6mb 84f 82f
2:00  -   -   -  2 4 mph 1015.6mb 84f 82f
1:50 3.5ft 12s 6s 2 4 mph 1015.6mb 84f 82f
1:40 3.5ft  -  6s 4
mph
1015.6mb 84f 82f
1:30  -   -   -  4 7 mph 1015.6mb 84f 82f
1:20  -   -   -  4 7 mph 1015.6mb 84f 82f
1:10  -   -   -  4 7 mph 1015.6mb 84f 82f
1:00  -   -   -  2 4 mph 1015.6mb 84f 82f
12:50 3.5ft 11s 6s 2 4 mph 1015.6mb 84f 82f
12:40 3.5ft  -  6s 4 7 mph 1015.9mb 84f 82f
12:30  -   -   -  4 7 mph 1016mb 84f 82f
12:20  -   -   -  4
mph
1015.9mb 84f 82f
12:10  -   -   -  2 4 mph 1015.9mb 84f 82f
12:00  -   -   -  2 4 mph 1015.9mb 84f 82f
Di 08/30 11:50 3.5ft 11s 6s 4 7 mph 1015.9mb 84f 81f
11:40  -   -   -  4 7 mph 1015.6mb 84f 81f
11:30  -   -   -  4 7 mph 1015.9mb 84f 81f
11:20  -   -   -  4 7 mph 1016mb 84f 81f
11:10  -   -   -  4 11 mph 1016mb 85f 81f
11:00  -   -   -  7 11 mph 1015.9mb 85f 83f
10:50 3.5ft 11s 6s 7 9 mph 1015.9mb 85f 83f
10:40  -   -   -  7 11 mph 1016mb 85f 83f
10:30  -   -   -  7 9 mph 1015.9mb 85f 83f
10:20  -   -   -  7 11 mph 1015.8mb 85f 83f
10:10  -   -   -  2 4 mph 1015.6mb 85f 83f
10:00  -   -   -  2 4 mph 1015.8mb 85f 83f
9:50 3.5ft 12s 6s 2 4 mph 1015.8mb 85f 83f
9:40 3.5ft  -  6s 4 7 mph 1015.6mb 85f 83f
9:30  -   -   -  4 7 mph 1015.6mb 85f 83f
9:20  -   -   -  4 7 mph 1015.6mb 85f 83f
9:10  -   -   -  4 7 mph 1015.6mb 85f 83f
9:00  -   -   -  7 9 mph 1015.6mb 85f 83f
8:50 3.5ft 11s 6s 7 9 mph 1015.5mb 85f 83f
8:40  -   -   -  7 9 mph 1015.1mb 85f 83f
8:30  -   -   -  7 9 mph 1014.9mb 85f 83f
8:20  -   -   -  7 9 mph 1014.6mb 85f 83f
8:10  -   -   -  7 9 mph 1014.5mb 85f 83f
8:00  -   -   -  7 9 mph 1014.6mb 85f 83f
7:50 4ft 11s 6s 7 9 mph 1014.5mb 85f 83f
7:40  -   -   -  7 9 mph 1014.4mb 85f 83f
7:30  -   -   -  9 11 mph 1014.4mb 85f 83f
7:20  -   -   -  9 11 mph 1014.3mb 85f 83f
7:10  -   -   -  9 13 mph 1014.3mb 85f 83f
7:00  -   -   -  9 13 mph 1014.3mb 85f 83f
6:50 3.5ft 12s 6s 9 11 mph 1014.4mb 85f 83f
6:40  -   -   -  9 11 mph 1014.5mb 85f 82f
6:30  -   -   -  9 11 mph 1014.5mb 85f 82f
6:20  -   -   -  9 11 mph 1014.5mb 85f 82f
6:10  -   -   -  9 11 mph 1014.6mb 85f 82f
6:00  -   -   -  7 9 mph 1014.6mb 85f 82f
5:50 3.5ft 11s 6s 9 11 mph 1014.6mb 85f 82f
5:40  -   -   -  9 11 mph 1014.6mb 85f 82f
5:30  -   -   -  9 11 mph 1014.8mb 85f 82f
5:20  -   -   -  9 11 mph 1014.9mb 85f 82f
5:10  -   -   -  9 11 mph 1015mb 85f 82f
5:00  -   -   -  9 11 mph 1015mb 85f 82f
4:50 4ft 11s 6s 9 11 mph 1015.1mb 85f 82f
4:40 4ft  -  6s 9 11 mph 1015mb 85f 82f
4:30  -   -   -  9 13 mph 1015.3mb 85f 82f
4:20  -   -   -  11 16 mph 1015.3mb 85f 82f
4:10  -   -   -  11 16 mph 1015.4mb 85f 82f
4:00  -   -   -  11 16 mph 1015.3mb 85f 82f
3:50 4ft 12s 5s 11 13 mph 1015.4mb 85f 82f
3:40  -   -   -  11 13 mph 1015.5mb 85f 81f
3:30  -   -   -  11 13 mph 1015.6mb 85f 82f
3:20  -   -   -  9 11 mph 1015.9mb 85f 81f
3:10  -   -   -  9 11 mph 1016mb 85f 81f
3:00  -   -   -  11 13 mph 1016mb 85f 81f
2:50 4.5ft 11s 5s 11 16 mph 1016mb 85f 81f
2:40  -   -   -  13 16 mph 1016mb 85f 81f
2:30  -   -   -  13 16 mph 1016.1mb 85f 81f
2:20  -   -   -  11 16 mph 1016.4mb 85f 81f
2:10  -   -   -  13 16 mph 1016.5mb 85f 81f
2:00  -   -   -  13 18 mph 1016.6mb 85f 81f
1:50 4.5ft 12s 6s 13 16 mph 1016.8mb 85f 81f
1:40  -   -   -  13 16 mph 1016.9mb 85f 81f
1:30  -   -   -  11 16 mph 1017mb 85f 81f
1:20  -   -   -  11 13 mph 1017mb 85f 81f
1:10  -   -   -  13 16 mph 1017mb 85f 81f
1:00  -   -   -  13 16 mph 1017mb 85f 81f
12:50 5ft 12s 6s 13 16 mph 1017mb 85f 81f
12:40 5ft  -  6s 13 16 mph 1017mb 85f 81f
12:30  -   -   -  13 16 mph 1017mb 85f 81f
12:20  -   -   -  11 16 mph 1016.9mb 85f 81f
12:10  -   -   -  9 13 mph 1016.9mb 85f 81f
12:00  -   -   -  9 11 mph 1016.9mb 85f 81f
11:50 4.5ft 12s 5s 9 11 mph 1016.8mb 85f 81f
11:40 4.5ft  -  5s 9 11 mph 1016.9mb 85f 81f
11:30  -   -   -  9 11 mph 1017mb 85f 81f
11:20  -   -   -  7 9 mph 1017.1mb 85f 81f
11:10  -   -   -  7 11 mph 1017.4mb 85f 81f
11:00  -   -   -  9 11 mph 1017.5mb 85f 81f
10:50 4.5ft 12s 6s 9 11 mph 1017.5mb 85f 81f
10:40  -   -   -  11 13 mph 1017.4mb 85f 81f
10:30  -   -   -  13 16 mph 1017.4mb 85f 81f
10:20  -   -   -  11 16 mph 1017.4mb 85f 81f
10:10  -   -   -  11 13 mph 1017.1mb 85f 81f
10:00  -   -   -  9 13 mph 1017.1mb 85f 81f
9:50 4.5ft 7s 5s 11 13 mph 1017.4mb 85f 81f
9:40  -   -   -  11 16 mph 1017.5mb 85f 81f
9:30  -   -   -  13 16 mph 1017.9mb 85f 81f
9:20  -   -   -  11 13 mph 1018mb 85f 81f
9:10  -   -   -  11 13 mph 1017.8mb 85f 81f
9:00  -   -   -  11 16 mph 1017.6mb 84f 81f
8:50 5ft 7s 6s 11 16 mph 1017.5mb - 81f
8:40  -   -   -  13 18 mph 1017.5mb 84f 81f
8:30  -   -   -  13 18 mph 1017.1mb 84f 81f
8:20  -   -   -  13 18 mph 1017mb 84f 81f
8:10  -   -   -  13 18 mph 1016.9mb 84f 81f
8:00  -   -   -  13 18 mph 1016.9mb 84f 81f
7:50 5ft 12s 6s 16 20 mph 1016.5mb 84f 81f
7:40  -   -   -  16 22 mph 1016mb 84f 81f
7:30  -   -   -  16 20 mph 1016mb 84f 81f
7:20  -   -   -  16 20 mph 1016mb 84f 80f
7:10  -   -   -  16 20 mph 1016.1mb 84f 80f
7:00  -   -   -  16 22 mph 1016.4mb 84f 81f
6:50 5ft 12s 6s 18 20 mph 1016.3mb 84f 81f
6:40  -   -   -  16 20 mph 1016mb 84f 81f
6:30  -   -   -  16 20 mph 1015.6mb 84f 81f
6:20  -   -   -  13 18 mph 1015.5mb 84f 81f
6:10  -   -   -  13 18 mph 1015.5mb 84f 81f
6:00  -   -   -  13 16 mph 1015.4mb 84f 81f
5:50 5ft 7s 6s 13 18 mph 1015.1mb 85f 81f
5:40  -   -   -  13 18 mph 1015mb 85f 81f
5:30  -   -   -  13 18 mph 1015mb 85f 81f
5:20  -   -   -  16 20 mph 1015mb 85f 81f
5:10  -   -   -  16 20 mph 1015.1mb 85f 82f
5:00  -   -   -  16 20 mph 1015.1mb 85f 82f
4:50 5ft 12s 6s 16 18 mph 1015mb 85f 82f
4:40  -   -   -  16 20 mph 1015mb 85f 82f
4:30  -   -   -  16 20 mph 1015mb 85f 82f
4:20  -   -   -  16 18 mph 1015.3mb 85f 82f
4:10  -   -   -  16 18 mph 1015.5mb 85f 82f
4:00  -   -   -  13 18 mph 1015.4mb 85f 82f
3:50 5ft 13s 6s 13 16 mph 1015.4mb 85f 82f
3:40 5ft  -  6s 13 18 mph 1015.5mb 85f 82f
3:30  -   -   -  16 18 mph 1015.5mb 85f 82f
3:20  -   -   -  13 18 mph 1015.4mb 85f 82f
3:10  -   -   -  13 16 mph 1015.4mb 85f 82f
3:00  -   -   -  13 18 mph 1015.6mb 85f 82f
2:50 5ft 8s 5s 16 18 mph 1015.5mb 85f 82f
2:40  -   -   -  16 20 mph 1015.6mb 85f 83f
2:30  -   -   -  16 20 mph 1015.9mb 85f 82f
2:20  -   -   -  18 20 mph 1015.9mb 85f 83f
2:10  -   -   -  18 20 mph 1015.9mb 85f 82f
2:00  -   -   -  18 22 mph 1016mb 85f 83f
1:50 4.5ft 8s 5s 16 20 mph 1016mb 85f 83f
1:40  -   -   -  16 20 mph 1016.1mb 85f 83f
1:30  -   -   -  16 20 mph 1016.5mb 85f 83f
1:20  -   -   -  16 18 mph 1016.5mb 85f 83f
1:10  -   -   -  16 18 mph 1016.3mb 85f 83f
1:00  -   -   -  16 18 mph 1016.5mb 85f 83f
12:50 4.5ft 8s 5s 16 18 mph 1016.5mb 85f 83f
12:40  -   -   -  16 18 mph 1016.5mb 85f 83f
12:30  -   -   -  13 16 mph 1016.5mb 85f 83f
12:20  -   -   -  13 16 mph 1016.5mb 85f 83f
12:10  -   -   -  13 16 mph 1016.6mb 85f 83f
12:00  -   -   -  13 16 mph 1016.8mb 85f 83f
Mo 08/29 11:50 5ft 8s 5s 13 18 mph 1016.9mb 85f 83f
11:40  -   -   -  13 18 mph 1016.6mb 85f 83f
11:30  -   -   -  13 18 mph 1016.8mb 85f 83f
11:20  -   -   -  13 16 mph 1016.6mb 85f 83f
11:10  -   -   -  13 18 mph 1016.6mb 85f 83f
11:00  -   -   -  13 18 mph 1016.8mb 85f 83f
10:50 5ft 8s 6s 13 18 mph 1016.8mb 85f 83f
10:40  -   -   -  16 18 mph 1016.8mb 85f 83f
10:30  -   -   -  16 18 mph 1016.5mb 85f 82f
10:20  -   -   -  16 20 mph 1016.5mb 85f 82f
10:10  -   -   -  18 22 mph 1016.5mb 85f 83f
10:00  -   -   -  13 18 mph 1016.5mb 85f 83f
9:50 4.5ft 8s 6s 13 20 mph 1016.6mb 85f 83f
9:40  -   -   -  16 18 mph 1016.6mb 85f 84f
9:30  -   -   -  16 18 mph 1016.6mb 85f 84f
9:20  -   -   -  13 18 mph 1016.5mb 85f 84f
9:10  -   -   -  16 18 mph 1016.5mb 85f 84f
9:00  -   -   -  16 18 mph 1016.6mb 85f 84f
8:50 4ft 13s 6s 16 18 mph 1016.6mb 85f 84f
8:40  -   -   -  13 18 mph 1016.5mb 85f 84f
8:30  -   -   -  13 18 mph 1016.4mb 85f 84f
8:20  -   -   -  13 16 mph 1016.1mb 85f 84f
8:10  -   -   -  13 16 mph 1016.3mb 85f 83f
8:00  -   -   -  13 18 mph 1016.3mb 85f 83f
7:50 4.5ft 8s 6s 13 16 mph 1016.3mb 85f 83f
7:40  -   -   -  13 16 mph 1016mb 85f 83f
7:30  -   -   -  13 16 mph 1016.1mb 85f 83f
7:20  -   -   -  13 16 mph 1016.1mb 85f 83f
7:10  -   -   -  13 16 mph 1016.3mb 85f 83f
7:00  -   -   -  13 18 mph 1016.3mb 85f 83f
6:50 4.5ft 8s 6s 13 18 mph 1016.3mb 85f 83f
6:40 4.5ft  -  6s 13 18 mph 1016.1mb 85f 83f
6:30  -   -   -  13 16 mph 1016.3mb 85f 83f
6:20  -   -   -  11 13 mph 1016.1mb 85f 83f
6:10  -   -   -  11 13 mph 1016.3mb 85f 83f
6:00  -   -   -  11 13 mph 1016.5mb 85f 83f
5:50 4.5ft 8s  -  11 13 mph 1016.5mb 85f 83f
5:40  -   -   -  11 13 mph 1016.4mb - 83f
5:30  -   -   -  11 13 mph 1016.5mb 85f 83f
5:20  -   -   -  11 16 mph 1016.5mb 85f 83f
5:10  -   -   -  11 13 mph 1016.5mb 85f 83f
5:00  -   -   -  11 16 mph 1016.5mb 85f 83f
4:50 4.5ft 8s 5s 13 16 mph 1016.5mb 85f 83f
4:40 4.5ft  -  5s 13 18 mph 1016.5mb 85f 82f
4:30  -   -   -  16 18 mph 1016.5mb 85f 82f
4:20  -   -   -  16 20 mph 1016.6mb 85f 81f
4:10  -   -   -  20 25 mph 1016.8mb 85f 81f
4:00  -   -   -  18 27 mph 1016.5mb 85f 82f
3:50 4ft 8s 5s 13 18 mph 1016.6mb 85f 83f
3:40  -   -   -  13 16 mph 1016.5mb 85f 83f
3:30  -   -   -  13 18 mph 1016.5mb 85f 83f
3:20  -   -   -  13 18 mph 1016.6mb 85f 83f
3:10  -   -   -  13 16 mph 1017mb 85f 83f
3:00  -   -   -  13 18 mph 1017mb 85f 83f
2:50 4ft 8s 5s 13 18 mph 1017mb 85f 83f
2:40  -   -   -  13 16 mph 1017.3mb 85f 83f
2:30  -   -   -  13 18 mph 1017.4mb - -
2:20  -   -   -  13 16 mph 1017.5mb 85f 83f
2:10  -   -   -  11 16 mph 1017.5mb 85f 83f
2:00  -   -   -  11 16 mph 1017.5mb 85f 83f
1:50 3.5ft 9s 6s 9 13 mph 1017.8mb 85f 83f
1:40  -   -   -  11 13 mph 1017.9mb 85f 83f
1:30  -   -   -  11 13 mph 1017.9mb 85f 83f
1:20  -   -   -  11 13 mph 1017.9mb 85f 83f
1:10  -   -   -  11 16 mph 1018mb 85f 83f
1:00  -   -   -  11 13 mph 1017.9mb 85f 83f
12:50 3.5ft 14s 5s 11 13 mph 1017.9mb 85f 83f
12:40  -   -   -  11 13 mph 1017.9mb 85f 83f
12:30  -   -   -  11 13 mph 1017.9mb 85f 83f
12:20  -   -   -  11 13 mph 1017.8mb 85f 83f
12:10  -   -   -  11 16 mph 1017.8mb 85f 83f
12:00  -   -   -  11 13 mph 1017.8mb 85f 83f
11:50 3.5ft 8s 5s 11 13 mph 1017.8mb 85f 83f
11:40 3.5ft  -  5s 11 16 mph 1017.9mb 85f 83f
11:30  -   -   -  11 16 mph 1017.9mb 85f 83f
11:20  -   -   -  13 16 mph 1017.9mb 85f 83f
11:10  -   -   -  11 16 mph 1018mb 85f 83f
11:00  -   -   -  11 16 mph 1018mb 85f 83f
10:50 3.5ft 14s 5s 11 13 mph 1018mb 85f 82f
10:40  -   -   -  11 13 mph 1018mb 85f 83f
10:30  -   -   -  11 13 mph 1018mb 85f 82f
10:20  -   -   -  11 16 mph 1018mb 85f 83f
10:10  -   -   -  13 16 mph 1017.9mb 85f 83f
10:00  -   -   -  11 16 mph 1017.9mb 85f 82f
9:50 3.5ft 14s 5s 13 16 mph 1017.9mb 85f 82f
9:40  -   -   -  13 16 mph 1017.9mb 85f 82f
9:30  -   -   -  13 16 mph 1017.8mb 85f 82f
9:20  -   -   -  11 16 mph 1017.8mb 85f 82f
9:10  -   -   -  11 16 mph 1017.9mb 85f 82f
9:00  -   -   -  13 16 mph 1017.8mb 85f 82f
8:50 3ft 14s 5s 13 18 mph 1017.8mb 85f 83f
8:40  -   -   -  11 13 mph 1017.5mb 85f 83f
8:30  -   -   -  11 13 mph 1017.5mb 85f 82f
8:20  -   -   -  11 16 mph 1017.5mb 85f 82f
8:10  -   -   -  11 13 mph 1017.5mb 85f 82f
8:00  -   -   -  11 16 mph 1017.5mb 85f 82f
7:50 3ft 14s 5s 11 13 mph 1017.6mb 85f 82f
7:40  -   -   -  9 11 mph 1017.6mb 85f 82f
7:30  -   -   -  9 11 mph 1017.5mb 85f 82f
7:20  -   -   -  11 16 mph 1017.3mb 85f 82f
7:10  -   -   -  13 16 mph 1017mb 85f 82f
7:00  -   -   -  13 18 mph 1017mb 85f 82f
6:50 3ft 14s 5s 18 20 mph 1017mb - -
6:40  -   -   -  18 20 mph 1016.9mb 85f 82f
6:30  -   -   -  13 18 mph 1016.9mb 85f 82f
6:20  -   -   -  13 16 mph 1017mb 85f 82f
6:10  -   -   -  13 16 mph 1016.9mb 85f 82f
6:00  -   -   -  11 16 mph 1016.8mb 85f 82f
5:50 3ft 14s 5s 11 13 mph 1016.6mb 85f 82f
5:40  -   -   -  11 13 mph 1016.8mb 85f 82f
5:30  -   -   -  11 16 mph 1016.9mb 85f 82f
5:20  -   -   -  11 13 mph 1016.6mb 85f 81f
5:10  -   -   -  11 13 mph 1016.8mb 85f 81f
5:00  -   -   -  13 18 mph 1017mb 85f 81f
4:50 3ft 14s 5s 13 18 mph 1017mb 85f 80f
4:40  -   -   -  16 18 mph 1016.8mb 85f 81f
4:30  -   -   -  11 18 mph 1016.8mb 85f 82f
4:20  -   -   -  9 11 mph 1016.8mb 85f 83f
4:10  -   -   -  9 11 mph 1016.9mb 85f 83f
4:00  -   -   -  9 13 mph 1016.9mb 85f 83f
3:50 3ft 5s 5s 11
mph
1016.9mb 85f 83f
3:40  -   -   -  9 11 mph 1017mb 85f 83f
3:30  -   -   -  9 11 mph 1017mb 85f 83f
3:20  -   -   -  9 11 mph 1017mb 85f 83f
3:10  -   -   -  9 11 mph 1017.1mb 85f 83f
3:00  -   -   -  9 11 mph 1017.3mb 85f 83f
2:50 3.5ft 15s 5s 11 13 mph 1017.1mb 85f 83f
2:40  -   -   -  9 13 mph 1017.3mb 84f 83f
2:30  -   -   -  7 11 mph 1017.3mb 84f 83f
2:20  -   -   -  9 11 mph 1017.1mb 84f 83f
2:10  -   -   -  9 11 mph 1017.1mb 84f 83f
2:00  -   -   -  9 11 mph 1017.1mb 84f 83f
1:50 3.5ft 15s 5s 9 11 mph 1017.4mb 84f 83f
1:40 3.5ft  -  5s 9 11 mph 1017.3mb 84f 83f
1:30  -   -   -  11 13 mph 1017.4mb 84f 83f
1:20  -   -   -  11 13 mph 1017.4mb 84f 83f
1:10  -   -   -  11 13 mph 1017.5mb 84f 83f
1:00  -   -   -  13 16 mph 1017.5mb 84f 83f
12:50 3.5ft 8s 5s 11 18 mph 1017.5mb 84f 83f
12:40  -   -   -  11 13 mph 1017.5mb 84f 83f
12:30  -   -   -  11 13 mph 1017.5mb 84f 83f
12:20  -   -   -  11 13 mph 1017.5mb 84f 83f
12:10  -   -   -  11 13 mph 1017.6mb 84f 83f
12:00  -   -   -  13 16 mph 1017.6mb 84f 83f
So 08/28 11:50 3.5ft 8s 5s 13 16 mph 1017.5mb 84f 83f
11:40  -   -   -  13 16 mph 1017.5mb 84f 83f
11:30  -   -   -  13 18 mph 1017.5mb 84f 83f
11:20  -   -   -  13 18 mph 1017.5mb - -
11:10  -   -   -  13 16 mph 1017.5mb 84f 83f
11:00  -   -   -  13 18 mph 1017.5mb 84f 83f
10:50 3.5ft 8s 4s 13 16 mph 1017.5mb 84f 83f
10:40  -   -   -  13 16 mph 1017.5mb 84f 83f
10:30  -   -   -  13 18 mph 1017.6mb 84f 83f
10:20  -   -   -  16 18 mph 1017.5mb 84f 83f
10:10  -   -   -  16 20 mph 1017.5mb 84f 83f
10:00  -   -   -  16 18 mph 1017.6mb 84f 84f
9:50 3.5ft 7s 5s 16 18 mph 1017.5mb 84f 83f
9:40  -   -   -  13 18 mph 1017.5mb 84f 84f
9:30  -   -   -  13 16 mph 1017.5mb 84f 84f
9:20  -   -   -  13 16 mph 1017.5mb 84f 84f
9:10  -   -   -  13 16 mph 1017.5mb 84f 84f
9:00  -   -   -  13 18 mph 1017.4mb 84f 83f
8:50 3ft 8s 5s 13 18 mph 1017.1mb 84f 83f
8:40 3ft  -  5s 13 18 mph 1017mb 84f 83f
8:30  -   -   -  13 18 mph 1017mb 84f 83f
8:20  -   -   -  13 18 mph 1017mb 84f 84f
8:10  -   -   -  13 18 mph 1017mb 84f 84f
8:00  -   -   -  13 18 mph 1017mb 84f 84f
7:50 3.5ft 8s 5s 13 18 mph 1017mb 84f 84f
7:40  -   -   -  16 18 mph 1016.9mb 84f 84f
7:30  -   -   -  16 20 mph - - 84f
7:20  -   -   -  16 18 mph 1016.8mb 84f 84f
7:10  -   -   -  16 18 mph 1016.8mb 84f 84f
7:00  -   -   -  16 20 mph 1016.8mb 84f 84f
6:50 3.5ft 8s 5s 16 18 mph 1016.8mb 84f 83f
6:40 3.5ft  -  5s 13 18 mph 1016.8mb 84f 83f
6:30  -   -   -  13 18 mph 1017mb 84f 83f
6:20  -   -   -  16 18 mph 1017mb 84f 82f
6:10  -   -   -  16 18 mph 1017.3mb 84f 82f
6:00  -   -   -  16 20 mph 1017.1mb 84f 82f
5:50 3ft 7s 5s 16 18 mph 1017mb 84f 82f
5:40 3ft  -  5s 13 18 mph 1017mb 84f 82f
5:30  -   -   -  13 18 mph 1017mb 84f 82f
5:20  -   -   -  13 16 mph 1017.1mb 84f 82f
5:10  -   -   -  13 16 mph 1017.1mb 84f 82f
5:00  -   -   -  11 13 mph 1017.4mb 84f 82f
4:50 3.5ft 5s 5s 11 16 mph 1017.4mb 85f 81f
4:40  -   -   -  13 16 mph 1017.3mb 85f 81f
4:30  -   -   -  13 16 mph 1017.5mb 85f 81f
4:20  -   -   -  13 18 mph 1017.6mb 85f 81f
4:10  -   -   -  13 18 mph 1017.9mb 85f 81f
4:00  -   -   -  16 18 mph 1017.9mb 84f 82f
3:50 3.5ft 5s 5s 13 16 mph 1018.1mb 84f 82f
3:40  -   -   -  13 16 mph 1018.1mb 84f 81f
3:30  -   -   -  13 18 mph 1018.4mb 85f 80f
3:20  -   -   -  16 20 mph 1018.5mb 85f 81f
3:10  -   -   -  18 20 mph 1018.5mb 85f 81f
3:00  -   -   -  13 20 mph 1018.5mb 85f 82f
2:50 3ft 8s 5s 11 16 mph 1018.5mb 85f 83f
2:40  -   -   -  11 16 mph 1018.5mb 85f 84f
2:30  -   -   -  9 13 mph 1018.6mb 84f 84f
2:20  -   -   -  9 11 mph 1018.6mb 84f 84f
2:10  -   -   -  9 11 mph 1018.6mb 84f 84f
2:00  -   -   -  9 11 mph 1018.9mb 84f 84f
1:50 3.5ft 9s 5s 9 13 mph 1019mb 84f 84f
1:40 3.5ft  -  5s 9 11 mph 1019mb 84f 84f
1:30  -   -   -  9 11 mph 1019mb 84f 84f
1:20  -   -   -  9 13 mph 1019mb 84f 84f
1:10  -   -   -  9 11 mph 1019.1mb 84f 84f
1:00  -   -   -  9 11 mph 1019.3mb 84f 84f
12:50 3.5ft 8s 5s 11 13 mph 1019.3mb 84f 84f
12:40  -   -   -  11 13 mph 1019.4mb 84f 84f
12:30  -   -   -  11 13 mph 1019.5mb 84f 84f
12:20  -   -   -  11 16 mph 1019.5mb 84f 84f
12:10  -   -   -  11 16 mph 1019.5mb 84f 84f
12:00  -   -   -  11 13 mph 1019.4mb 84f 84f
11:50 3.5ft 8s 5s 11 13 mph 1019.5mb 84f 84f
11:40  -   -   -  11 13 mph 1019.5mb 84f 84f
11:30  -   -   -  11 13 mph 1019.5mb 84f 83f
11:20  -   -   -  11 16 mph 1019.5mb 84f 83f
11:10  -   -   -  11 13 mph 1019.5mb 84f 83f
11:00  -   -   -  11 13 mph 1019.5mb 84f 83f
10:50 3.5ft 7s 5s 11 13 mph 1019.5mb 84f 83f
10:40  -   -   -  11 13 mph 1019.3mb 84f 83f
10:30  -   -   -  11 13 mph 1019.3mb 84f 83f
10:20  -   -   -  11 13 mph 1019.3mb 84f 83f
10:10  -   -   -  11 16 mph 1019.1mb 84f 83f
10:00  -   -   -  11 13 mph 1019.3mb 84f 83f
9:50 3.5ft 9s 5s 11 13 mph 1019.3mb 84f 83f
9:40 3.5ft  -  5s 11 13 mph 1019.1mb 84f 83f
9:30  -   -   -  11 16 mph 1019mb 84f 83f
9:20  -   -   -  13 16 mph 1018.9mb 84f 83f
9:10  -   -   -  13 16 mph 1018.8mb 84f 82f
9:00  -   -   -  13 16 mph 1018.9mb 84f 82f
8:50 3.5ft 9s 5s 13 16 mph 1018.9mb 84f 82f
8:40  -   -   -  13 16 mph 1019mb 84f 82f
8:30  -   -   -  13 16 mph 1018.9mb 84f 82f
8:20  -   -   -  13 16 mph 1018.8mb 84f 82f
8:10  -   -   -  13 16 mph 1018.6mb 84f 82f
8:00  -   -   -  13 16 mph 1018.6mb 84f 82f
7:50 3.5ft 8s 5s 13 16 mph 1018.6mb 84f 82f
7:40  -   -   -  11 16 mph 1018.6mb 84f 82f
7:30  -   -   -  11 16 mph 1018.5mb 84f 82f
7:20  -   -   -  11 13 mph 1018.5mb 84f 82f
7:10  -   -   -  11 16 mph 1018.5mb 84f 82f
7:00  -   -   -  11 16 mph 1018.4mb 84f 82f
6:50 3.5ft 7s 6s 11 16 mph 1018.3mb 84f 82f
6:40  -   -   -  11 13 mph 1018.3mb 84f 82f
6:30  -   -   -  11 13 mph 1018.1mb 84f 82f
6:20  -   -   -  11 13 mph 1018mb 84f 82f
6:10  -   -   -  11 13 mph 1017.9mb 84f 83f
6:00  -   -   -  9 13 mph 1017.8mb 84f 83f
5:50 3.5ft 8s 6s 9 13 mph 1017.8mb 84f 83f
5:40  -   -   -  9 11 mph 1017.5mb 84f 83f
5:30  -   -   -  9 11 mph 1017.5mb 84f 83f
5:20  -   -   -  9 11 mph 1017.5mb 84f 83f
5:10  -   -   -  9 11 mph 1017.5mb 84f 83f
5:00  -   -   -  9 11 mph 1017.5mb 84f 83f
4:50 3.5ft 8s 6s 9 11 mph 1017.5mb 84f 83f
4:40  -   -   -  9 11 mph 1017.5mb 84f 83f
4:30  -   -   -  9 11 mph 1017.5mb 84f 83f
4:20  -   -   -  7 9 mph 1017.5mb 84f 83f
4:10  -   -   -  7 9 mph 1017.6mb 84f 83f
4:00  -   -   -  7 11 mph 1017.8mb 84f 83f
3:50 3.5ft 8s 6s 7 9 mph 1017.8mb 84f 83f
3:40 3.5ft  -  6s 7 11 mph 1017.8mb 84f 83f
3:30  -   -   -  9 11 mph 1018mb 84f 83f
3:20  -   -   -  9 11 mph 1018mb 84f 83f
3:10  -   -   -  7 9 mph 1018.1mb 84f 83f
3:00  -   -   -  7 9 mph 1018.3mb 84f 83f
2:50 3.5ft 9s 6s 4 9 mph 1018.4mb 84f 83f
2:40  -   -   -  7 9 mph 1018.5mb 84f 83f
2:30  -   -   -  7 9 mph 1018.5mb 84f 83f
2:20  -   -   -  7 9 mph 1018.4mb 84f 83f
2:10  -   -   -  7 11 mph 1018.4mb 84f 83f